Time;durP1;ratioP1;P1;durP2;ratioP2;P2;SDS_P1;SDS_P2;PMS_P1;PMS_P2;Temp;Humidity;BMP_temperature;BMP_pressure;BME280_temperature;BME280_humidity;BME280_pressure;Samples;Min_cycle;Max_cycle;Signal;HPM_P1;HPM_P2
2022/11/05 00:17:00;;;;;;;2.53;1.80;;;18.50;66.60;;;;;;6309558;22;20148;-79
2022/11/05 00:19:26;;;;;;;2.58;1.85;;;18.40;66.50;;;;;;6309726;22;20155;-79
2022/11/05 00:27:09;;;;;;;2.28;1.70;;;18.40;66.70;;;;;;6309599;22;20528;-79
2022/11/05 00:29:35;;;;;;;2.97;1.73;;;18.40;66.50;;;;;;6309718;22;20140;-79
2022/11/05 00:32:01;;;;;;;2.80;1.90;;;18.40;66.70;;;;;;6309587;22;20132;-79
2022/11/05 00:34:34;;;;;;;2.67;2.10;;;18.40;66.70;;;;;;6310045;22;20132;-79
2022/11/05 00:37:00;;;;;;;3.95;2.10;;;18.40;66.70;;;;;;6230807;22;20148;-79
2022/11/05 00:39:30;;;;;;;2.97;1.73;;;18.40;66.70;;;;;;6309283;22;20154;-79
2022/11/05 00:50:00;;;;;;;3.33;1.77;;;18.40;66.10;;;;;;6308057;22;20133;-79
2022/11/05 00:55:11;;;;;;;2.00;1.65;;;18.50;66.10;;;;;;6308281;22;20610;-79
2022/11/05 00:57:37;;;;;;;2.92;1.63;;;18.50;66.20;;;;;;6309122;22;20136;-81
2022/11/05 01:00:03;;;;;;;2.47;1.80;;;18.50;66.20;;;;;;6307753;22;20189;-79
2022/11/05 01:02:29;;;;;;;2.22;1.75;;;18.50;66.10;;;;;;6310006;22;20231;-79
2022/11/05 01:04:59;;;;;;;3.80;1.95;;;18.50;66.00;;;;;;6309635;22;20136;-80
2022/11/05 01:07:25;;;;;;;3.22;1.90;;;18.50;66.10;;;;;;6255410;22;20209;-79
2022/11/05 01:09:51;;;;;;;3.38;1.92;;;18.50;66.00;;;;;;6307467;22;20219;-79
2022/11/05 01:12:17;;;;;;;2.20;2.00;;;18.50;66.10;;;;;;6307574;22;20129;-79
2022/11/05 01:14:43;;;;;;;3.40;1.90;;;18.40;66.00;;;;;;6309097;22;20208;-79
2022/11/05 01:17:09;;;;;;;1.85;1.70;;;18.50;66.10;;;;;;6308788;22;20637;-79
2022/11/05 01:19:35;;;;;;;1.85;1.55;;;18.50;66.20;;;;;;6309212;22;20454;-79
2022/11/05 01:22:05;;;;;;;2.58;1.95;;;18.50;66.10;;;;;;6309112;22;20215;-79
2022/11/05 01:24:35;;;;;;;2.97;1.90;;;18.40;66.90;;;;;;6255439;22;20183;-79
2022/11/05 01:27:01;;;;;;;4.32;1.83;;;18.50;66.30;;;;;;6230114;22;20144;-79
2022/11/05 01:29:27;;;;;;;2.33;1.90;;;18.40;66.00;;;;;;6307136;22;20160;-79
2022/11/05 01:31:53;;;;;;;3.17;2.00;;;18.50;66.00;;;;;;6309145;22;20142;-79
2022/11/05 01:34:19;;;;;;;2.47;1.85;;;18.50;66.10;;;;;;6307474;22;20560;-78
2022/11/05 01:36:44;;;;;;;3.78;1.90;;;18.40;66.30;;;;;;6307430;22;20132;-79
2022/11/05 01:39:10;;;;;;;2.97;2.15;;;18.40;66.00;;;;;;6308833;22;20464;-79
2022/11/05 01:41:36;;;;;;;4.50;2.05;;;18.50;66.20;;;;;;6309178;22;20271;-80
2022/11/05 01:44:02;;;;;;;3.05;1.90;;;18.50;66.30;;;;;;6309730;22;20140;-79
2022/11/05 01:46:35;;;;;;;3.13;1.88;;;18.40;66.00;;;;;;6309546;22;20583;-80
2022/11/05 01:49:28;;;;;;;2.55;1.90;;;18.50;66.20;;;;;;6307996;22;20168;-79
2022/11/05 01:51:56;;;;;;;2.65;2.08;;;18.40;66.30;;;;;;6307540;22;20148;-79
2022/11/05 01:54:23;;;;;;;2.80;1.80;;;18.40;66.40;;;;;;6309521;22;20132;-79
2022/11/05 01:56:53;;;;;;;1.73;1.63;;;18.40;66.30;;;;;;6309411;22;20266;-79
2022/11/05 01:59:22;;;;;;;3.33;1.77;;;18.40;66.40;;;;;;6307974;22;20207;-79
2022/11/05 02:01:49;;;;;;;3.08;1.90;;;18.40;66.30;;;;;;6309556;22;20465;-79
2022/11/05 02:04:25;;;;;;;2.65;2.00;;;18.40;66.50;;;;;;6309384;22;20518;-79
2022/11/05 02:06:52;;;;;;;2.67;1.90;;;18.40;66.60;;;;;;6257893;22;20716;-79
2022/11/05 02:09:27;;;;;;;4.13;1.83;;;18.40;66.60;;;;;;6283218;22;20187;-79
2022/11/05 02:11:53;;;;;;;3.33;1.90;;;18.40;66.40;;;;;;6309570;22;20131;-80
2022/11/05 02:14:19;;;;;;;2.55;1.90;;;18.40;66.70;;;;;;6309649;22;20128;-79
2022/11/05 02:16:57;;;;;;;2.80;1.80;;;18.40;66.50;;;;;;6309222;22;20136;-79
2022/11/05 02:20:00;;;;;;;2.25;1.73;;;18.40;66.70;;;;;;6309578;22;20210;-79
2022/11/05 02:22:53;;;;;;;3.60;2.00;;;18.30;66.70;;;;;;6286042;22;20128;-79
2022/11/05 02:25:42;;;;;;;3.33;1.92;;;18.40;66.50;;;;;;6309293;22;20224;-79
2022/11/05 02:28:40;;;;;;;2.65;1.85;;;18.40;66.50;;;;;;6309619;22;20619;-79
2022/11/05 02:31:30;;;;;;;2.25;1.92;;;18.40;66.40;;;;;;6309095;22;20144;-79
2022/11/05 02:34:22;;;;;;;2.50;1.98;;;18.40;66.40;;;;;;6309579;22;20128;-79
2022/11/05 02:37:08;;;;;;;3.75;1.83;;;18.40;66.40;;;;;;6243268;22;20152;-79
2022/11/05 02:39:58;;;;;;;2.63;1.80;;;18.40;66.50;;;;;;6208428;22;20147;-79
2022/11/05 02:42:40;;;;;;;2.60;1.95;;;18.40;67.40;;;;;;6281423;22;20163;-80
2022/11/05 02:45:24;;;;;;;2.28;1.92;;;18.30;66.30;;;;;;6308435;22;20576;-79
2022/11/05 02:48:09;;;;;;;2.58;1.70;;;18.40;66.40;;;;;;6281570;22;20163;-79
2022/11/05 02:50:48;;;;;;;3.45;2.40;;;18.40;66.70;;;;;;6309203;22;20188;-79
2022/11/05 02:53:28;;;;;;;2.13;1.90;;;18.30;66.30;;;;;;6281476;22;20132;-78
2022/11/05 02:56:00;;;;;;;3.08;2.30;;;18.40;66.40;;;;;;6208467;22;20152;-78
2022/11/05 02:58:28;;;;;;;2.95;1.90;;;18.40;66.40;;;;;;6308504;22;20189;-79
2022/11/05 03:00:55;;;;;;;4.72;1.88;;;18.30;66.50;;;;;;6281414;22;20507;-79
2022/11/05 03:03:29;;;;;;;2.55;2.05;;;18.40;66.40;;;;;;6281249;22;20137;-78
2022/11/05 03:06:20;;;;;;;2.67;1.92;;;18.40;66.40;;;;;;6255631;22;20463;-79
2022/11/05 03:09:21;;;;;;;3.38;2.20;;;18.40;66.40;;;;;;6277365;22;20199;-79
2022/11/05 03:12:10;;;;;;;3.63;1.77;;;18.40;66.30;;;;;;6309345;22;20153;-79
2022/11/05 03:14:44;;;;;;;2.67;1.73;;;18.40;66.40;;;;;;6308742;22;20141;-79
2022/11/05 03:17:32;;;;;;;3.50;2.28;;;18.40;66.30;;;;;;6308751;22;20531;-80
2022/11/05 03:20:07;;;;;;;2.70;1.98;;;18.40;66.30;;;;;;6308884;22;20552;-78
2022/11/05 03:22:42;;;;;;;2.70;2.40;;;18.40;66.20;;;;;;6307398;22;20138;-79
2022/11/05 03:25:11;;;;;;;2.53;2.05;;;18.40;66.20;;;;;;6255147;22;20151;-78
2022/11/05 03:27:38;;;;;;;2.08;1.85;;;18.30;66.30;;;;;;6308630;22;20163;-79
2022/11/05 03:30:06;;;;;;;2.30;1.80;;;18.40;66.20;;;;;;6308281;22;20135;-79
2022/11/05 03:32:39;;;;;;;2.25;1.90;;;18.40;66.20;;;;;;6307325;22;20572;-79
2022/11/05 03:35:11;;;;;;;2.15;1.92;;;18.40;66.30;;;;;;6230046;22;20194;-78
2022/11/05 03:37:42;;;;;;;2.47;1.92;;;18.30;66.30;;;;;;6231276;22;20152;-79
2022/11/05 03:40:13;;;;;;;3.17;1.92;;;18.40;66.20;;;;;;6258112;22;20254;-78
2022/11/05 03:42:41;;;;;;;3.03;1.80;;;18.30;66.30;;;;;;6256991;22;20179;-79
2022/11/05 03:45:13;;;;;;;2.88;1.83;;;18.30;66.40;;;;;;6310673;22;20171;-78
2022/11/05 03:47:40;;;;;;;2.30;2.10;;;18.30;66.40;;;;;;6310630;22;20198;-79
2022/11/05 03:50:13;;;;;;;2.25;1.88;;;18.30;66.30;;;;;;6310375;22;20643;-78
2022/11/05 03:52:51;;;;;;;2.08;1.63;;;18.40;66.40;;;;;;6310666;22;20151;-79
2022/11/05 03:55:17;;;;;;;2.92;1.88;;;18.30;66.20;;;;;;6310648;22;20139;-78
2022/11/05 03:57:44;;;;;;;2.63;1.95;;;18.30;66.20;;;;;;6310805;22;20137;-79
2022/11/05 04:00:10;;;;;;;2.58;1.60;;;18.40;66.10;;;;;;6310355;22;20132;-79
2022/11/05 04:02:36;;;;;;;2.03;1.80;;;18.30;66.40;;;;;;6310744;22;20136;-79
2022/11/05 04:05:08;;;;;;;2.30;1.80;;;18.40;66.70;;;;;;6308538;22;20494;-79
2022/11/05 04:18:30;;;;;;;2.40;2.00;;;18.30;66.10;;;;;;6308168;22;20136;-79
2022/11/05 04:26:22;;;;;;;2.13;1.73;;;18.30;66.30;;;;;;6309603;22;20136;-79
2022/11/05 04:31:31;;;;;;;2.30;2.00;;;18.30;66.40;;;;;;6308314;22;20155;-79
2022/11/05 04:33:57;;;;;;;3.50;2.00;;;18.30;66.50;;;;;;6309687;22;20133;-78
2022/11/05 04:36:26;;;;;;;2.08;1.80;;;18.30;66.30;;;;;;6309579;22;20211;-81
2022/11/05 04:38:52;;;;;;;3.35;2.10;;;18.30;66.40;;;;;;6256606;22;20234;-79
2022/11/05 04:41:18;;;;;;;2.72;2.10;;;18.30;66.50;;;;;;6309687;22;20548;-79
2022/11/05 04:43:44;;;;;;;2.60;1.95;;;18.30;66.50;;;;;;6309585;22;20129;-79
2022/11/05 04:46:10;;;;;;;2.67;1.88;;;18.30;66.50;;;;;;6308667;22;20136;-78
2022/11/05 04:48:36;;;;;;;2.30;1.77;;;18.30;66.30;;;;;;6309318;22;20187;-79
2022/11/05 04:51:03;;;;;;;2.58;1.95;;;18.30;66.50;;;;;;6281772;22;20144;-78
2022/11/05 04:53:29;;;;;;;2.58;1.90;;;18.30;66.70;;;;;;6309881;22;20208;-79
2022/11/05 04:56:17;;;;;;;2.95;2.20;;;18.30;66.90;;;;;;6282389;22;20476;-78
2022/11/05 04:58:43;;;;;;;2.00;1.80;;;18.30;67.00;;;;;;6309613;22;20132;-79
2022/11/05 05:01:12;;;;;;;2.25;1.67;;;18.30;66.70;;;;;;6309051;22;20171;-79
2022/11/05 05:03:38;;;;;;;2.85;2.00;;;18.30;66.70;;;;;;6309678;22;20228;-78
2022/11/05 05:06:04;;;;;;;2.78;2.22;;;18.30;66.80;;;;;;6309038;22;20133;-78
2022/11/05 05:08:29;;;;;;;2.13;1.90;;;18.30;66.50;;;;;;6309772;22;20218;-78
2022/11/05 05:10:59;;;;;;;2.92;1.90;;;18.30;66.80;;;;;;6281899;22;20142;-79
2022/11/05 05:13:25;;;;;;;2.63;1.67;;;18.30;66.80;;;;;;6309316;22;20155;-80
2022/11/05 05:15:51;;;;;;;3.67;2.00;;;18.30;66.90;;;;;;6309083;22;20182;-78
2022/11/05 05:18:21;;;;;;;2.35;1.98;;;18.20;67.20;;;;;;6309036;22;20128;-79
2022/11/05 05:23:24;;;;;;;2.75;1.80;;;18.20;66.90;;;;;;6309366;22;20215;-79
2022/11/05 05:25:57;;;;;;;2.45;1.90;;;18.20;67.10;;;;;;6309035;22;20594;-79
2022/11/05 05:28:23;;;;;;;3.17;1.90;;;18.20;67.30;;;;;;6206458;22;20217;-79
2022/11/05 05:30:49;;;;;;;2.25;1.88;;;18.20;66.90;;;;;;6308826;22;20136;-79
2022/11/05 05:33:15;;;;;;;3.55;2.42;;;18.20;67.10;;;;;;6309005;22;20214;-79
2022/11/05 05:35:41;;;;;;;2.70;1.90;;;18.20;67.00;;;;;;6309303;22;20162;-80
2022/11/05 05:38:07;;;;;;;3.05;2.15;;;18.20;67.20;;;;;;6308791;22;20139;-79
2022/11/05 05:40:32;;;;;;;2.05;1.75;;;18.20;67.20;;;;;;6308638;22;20132;-79
2022/11/05 05:42:58;;;;;;;2.63;1.73;;;18.20;67.00;;;;;;6308984;22;20552;-79
2022/11/05 05:45:24;;;;;;;2.83;2.08;;;18.20;66.90;;;;;;6308540;22;20132;-79
2022/11/05 05:47:50;;;;;;;2.25;1.88;;;18.20;67.00;;;;;;6308982;22;20235;-79
2022/11/05 05:50:16;;;;;;;4.30;2.03;;;18.20;67.00;;;;;;6281294;22;20498;-79
2022/11/05 05:52:42;;;;;;;2.13;1.80;;;18.20;67.20;;;;;;6308589;22;20127;-79
2022/11/05 05:55:11;;;;;;;2.42;1.83;;;18.20;67.10;;;;;;6308575;22;20132;-79
2022/11/05 05:57:37;;;;;;;2.00;1.70;;;18.20;66.90;;;;;;6308803;22;20143;-79
2022/11/05 06:00:07;;;;;;;2.08;1.88;;;18.30;67.20;;;;;;6308516;22;20136;-79
2022/11/05 06:02:33;;;;;;;2.80;1.80;;;18.20;67.30;;;;;;6229758;22;20156;-79
2022/11/05 06:04:59;;;;;;;2.03;1.80;;;18.20;67.40;;;;;;6308236;22;20147;-79
2022/11/05 06:07:25;;;;;;;1.83;1.67;;;18.20;67.20;;;;;;6307997;22;20249;-79
2022/11/05 06:09:50;;;;;;;3.15;1.90;;;18.20;67.20;;;;;;6308049;22;20218;-79
2022/11/05 06:12:20;;;;;;;2.42;1.92;;;18.10;67.20;;;;;;6308668;22;20132;-79
2022/11/05 06:14:46;;;;;;;1.92;1.55;;;18.20;67.30;;;;;;6229898;22;20202;-79
2022/11/05 06:17:16;;;;;;;3.25;2.03;;;18.20;67.00;;;;;;6308382;22;20132;-80
2022/11/05 06:19:42;;;;;;;2.38;1.70;;;18.20;67.00;;;;;;6205055;22;20170;-79
2022/11/05 06:22:12;;;;;;;2.38;2.00;;;18.20;66.90;;;;;;6309031;22;20186;-79
2022/11/05 06:24:38;;;;;;;3.13;2.00;;;18.20;66.90;;;;;;6230241;22;20159;-79
2022/11/05 06:27:08;;;;;;;2.10;1.88;;;18.20;66.80;;;;;;6281773;22;20128;-79
2022/11/05 06:29:34;;;;;;;1.85;1.75;;;18.20;67.00;;;;;;6205911;22;20190;-82
2022/11/05 06:32:00;;;;;;;4.65;2.10;;;18.20;66.80;;;;;;6282377;22;20579;-80
2022/11/05 06:34:26;;;;;;;3.20;2.00;;;18.20;66.90;;;;;;6310211;22;20144;-80
2022/11/05 06:36:52;;;;;;;2.95;1.88;;;18.20;66.90;;;;;;6282945;22;20455;-79
2022/11/05 06:39:21;;;;;;;2.40;2.00;;;18.20;67.20;;;;;;6308794;22;20139;-79
2022/11/05 06:41:47;;;;;;;2.47;2.28;;;18.20;67.00;;;;;;6230093;22;20159;-79
2022/11/05 06:44:13;;;;;;;2.03;1.75;;;18.20;67.00;;;;;;6308151;22;20136;-79
2022/11/05 06:46:39;;;;;;;2.53;2.05;;;18.20;67.30;;;;;;6307952;22;20209;-79
2022/11/05 06:49:06;;;;;;;3.58;2.25;;;18.20;67.20;;;;;;6308254;22;20247;-78
2022/11/05 06:51:37;;;;;;;3.20;2.05;;;18.20;66.90;;;;;;6281103;22;20220;-79
2022/11/05 06:54:11;;;;;;;2.03;1.83;;;18.20;66.90;;;;;;6229113;22;20155;-79
2022/11/05 06:56:40;;;;;;;2.72;1.73;;;18.20;67.00;;;;;;6229531;22;20156;-80
2022/11/05 06:59:10;;;;;;;2.03;1.83;;;18.20;66.90;;;;;;6229238;22;20155;-79
2022/11/05 07:01:40;;;;;;;1.83;1.70;;;18.20;67.20;;;;;;6229339;22;20156;-79
2022/11/05 07:04:11;;;;;;;2.80;2.08;;;18.20;67.20;;;;;;6229937;22;20167;-79
2022/11/05 07:06:37;;;;;;;2.17;1.85;;;18.20;67.30;;;;;;6205350;22;20156;-79
2022/11/05 07:09:03;;;;;;;2.47;1.75;;;18.20;67.30;;;;;;6308307;22;20187;-79
2022/11/05 07:11:29;;;;;;;3.00;2.40;;;18.20;67.10;;;;;;6281060;22;20178;-79
2022/11/05 07:13:55;;;;;;;2.90;1.98;;;18.20;67.00;;;;;;6280866;22;20148;-79
2022/11/05 07:16:23;;;;;;;2.50;2.10;;;18.20;67.30;;;;;;6308142;22;20124;-79
2022/11/05 07:18:51;;;;;;;3.03;2.22;;;18.20;67.10;;;;;;6308949;22;20139;-79
2022/11/05 07:21:18;;;;;;;1.80;1.60;;;18.20;67.20;;;;;;6312644;22;20130;-79
2022/11/05 07:23:44;;;;;;;3.22;1.92;;;18.20;67.10;;;;;;6313052;22;20132;-79
2022/11/05 07:26:14;;;;;;;2.10;1.90;;;18.20;67.20;;;;;;6310841;22;20160;-79
2022/11/05 07:28:40;;;;;;;3.10;1.98;;;18.20;67.10;;;;;;6206233;22;20182;-79
2022/11/05 07:31:10;;;;;;;3.42;2.00;;;18.20;67.20;;;;;;6309650;22;20128;-79
2022/11/05 07:33:36;;;;;;;1.95;1.83;;;18.20;66.90;;;;;;6230202;22;20152;-79
2022/11/05 07:36:13;;;;;;;2.65;2.05;;;18.20;66.90;;;;;;6309238;22;20448;-79
2022/11/05 07:38:39;;;;;;;2.03;1.75;;;18.20;66.90;;;;;;6231969;22;20155;-79
2022/11/05 07:41:05;;;;;;;4.20;2.13;;;18.20;66.90;;;;;;6309460;22;20238;-79
2022/11/05 07:43:31;;;;;;;2.10;1.85;;;18.20;66.90;;;;;;6308970;22;20181;-79
2022/11/05 07:45:58;;;;;;;2.47;1.90;;;18.20;67.00;;;;;;6281950;22;20140;-79
2022/11/05 07:48:23;;;;;;;2.55;1.77;;;18.20;67.00;;;;;;6309590;22;20182;-79
2022/11/05 07:50:54;;;;;;;2.35;1.60;;;18.20;66.90;;;;;;6309321;22;20136;-79
2022/11/05 07:53:20;;;;;;;2.40;2.13;;;18.20;67.20;;;;;;6180581;22;20148;-79
2022/11/05 07:55:46;;;;;;;2.17;1.80;;;18.20;67.20;;;;;;6309000;22;20146;-79
2022/11/05 07:58:13;;;;;;;2.17;1.90;;;18.20;66.90;;;;;;6281705;22;20594;-79
2022/11/05 08:00:39;;;;;;;2.22;1.85;;;18.20;66.90;;;;;;6308987;22;20129;-79
2022/11/05 08:03:13;;;;;;;2.83;2.03;;;18.20;67.20;;;;;;6281629;22;20142;-79
2022/11/05 08:05:43;;;;;;;4.28;2.03;;;18.20;67.20;;;;;;6282315;22;20185;-79
2022/11/05 08:08:09;;;;;;;2.20;2.00;;;18.20;67.80;;;;;;6310106;22;20184;-79
2022/11/05 08:10:36;;;;;;;3.72;1.95;;;18.20;66.90;;;;;;6283450;22;20178;-79
2022/11/05 08:13:02;;;;;;;2.30;1.85;;;18.20;66.90;;;;;;6256921;22;20144;-79
2022/11/05 08:15:32;;;;;;;2.30;1.90;;;18.20;66.70;;;;;;6309706;22;20137;-79
2022/11/05 08:18:02;;;;;;;3.25;1.83;;;18.20;66.90;;;;;;6206405;22;20156;-79
2022/11/05 08:20:28;;;;;;;3.80;1.90;;;18.20;67.10;;;;;;6282013;22;20129;-79
2022/11/05 08:22:54;;;;;;;3.38;1.92;;;18.20;66.40;;;;;;6282445;22;20143;-79
2022/11/05 08:25:20;;;;;;;2.50;1.75;;;18.30;66.40;;;;;;6311006;22;20436;-79
2022/11/05 08:27:46;;;;;;;2.13;1.92;;;18.30;66.90;;;;;;6311337;22;20286;-79
2022/11/05 08:30:12;;;;;;;1.88;1.67;;;18.30;66.60;;;;;;6311464;22;20132;-79
2022/11/05 08:32:38;;;;;;;1.90;1.70;;;18.30;66.30;;;;;;6285151;22;20470;-79
2022/11/05 08:35:04;;;;;;;2.15;1.80;;;18.30;65.80;;;;;;6312054;22;20133;-80
2022/11/05 08:37:30;;;;;;;2.55;1.88;;;18.30;66.00;;;;;;6311839;22;20128;-81
2022/11/05 08:39:56;;;;;;;1.98;1.60;;;18.30;67.30;;;;;;6311858;22;20174;-79
2022/11/05 08:42:22;;;;;;;2.63;2.00;;;18.30;66.40;;;;;;6311911;22;20471;-79
2022/11/05 08:44:48;;;;;;;2.67;1.95;;;18.40;66.40;;;;;;6284629;22;20135;-79
2022/11/05 08:47:14;;;;;;;2.50;1.83;;;18.40;66.40;;;;;;6284885;22;20162;-79
2022/11/05 08:49:39;;;;;;;2.83;1.70;;;18.40;66.20;;;;;;6312288;22;20171;-78
2022/11/05 08:52:09;;;;;;;3.05;1.83;;;18.40;66.30;;;;;;6312259;22;20133;-80
2022/11/05 08:54:35;;;;;;;1.67;1.45;;;18.40;66.30;;;;;;6233055;22;20186;-80
2022/11/05 08:57:06;;;;;;;2.60;1.90;;;18.40;66.30;;;;;;6312100;22;20490;-79
2022/11/05 08:59:32;;;;;;;2.47;1.90;;;18.40;66.10;;;;;;6233227;22;20151;-79
2022/11/05 09:01:58;;;;;;;1.85;1.73;;;18.40;66.10;;;;;;6312405;22;20133;-79
2022/11/05 09:04:24;;;;;;;2.70;1.83;;;18.40;66.00;;;;;;6314158;22;20136;-79
2022/11/05 09:06:54;;;;;;;1.85;1.70;;;18.40;66.00;;;;;;6285862;22;20140;-79
2022/11/05 09:09:19;;;;;;;1.92;1.67;;;18.40;65.90;;;;;;6212849;22;20283;-79
2022/11/05 09:11:50;;;;;;;3.22;1.80;;;18.50;65.80;;;;;;6287933;22;20140;-79
2022/11/05 09:14:16;;;;;;;2.13;1.75;;;18.40;66.00;;;;;;6236801;22;20642;-80
2022/11/05 09:16:42;;;;;;;3.78;1.88;;;18.50;65.60;;;;;;6314808;22;20139;-79
2022/11/05 09:19:08;;;;;;;2.22;2.00;;;18.50;66.10;;;;;;6315292;22;20143;-80
2022/11/05 09:21:34;;;;;;;4.13;1.70;;;18.50;66.00;;;;;;6287862;22;20132;-80
2022/11/05 09:24:00;;;;;;;2.33;1.60;;;18.50;65.60;;;;;;6314948;22;20147;-82
2022/11/05 09:26:26;;;;;;;2.42;1.52;;;18.50;65.80;;;;;;6288126;22;20191;-79
2022/11/05 09:28:52;;;;;;;1.90;1.77;;;18.50;65.60;;;;;;6288692;22;20890;-79
2022/11/05 09:31:18;;;;;;;2.40;1.92;;;18.50;65.80;;;;;;6315634;22;20136;-80
2022/11/05 09:33:44;;;;;;;3.13;2.00;;;18.50;65.40;;;;;;6314101;22;20148;-79
2022/11/05 09:36:14;;;;;;;2.55;1.70;;;18.50;65.60;;;;;;6314301;22;20463;-79
2022/11/05 09:38:47;;;;;;;2.78;1.65;;;18.50;65.60;;;;;;6211129;22;20167;-79
2022/11/05 09:41:26;;;;;;;1.98;1.77;;;18.50;65.60;;;;;;6237340;22;20209;-80
2022/11/05 09:43:54;;;;;;;4.20;1.88;;;18.50;65.30;;;;;;6287585;22;20281;-79
2022/11/05 09:46:23;;;;;;;2.10;1.90;;;18.60;65.70;;;;;;6315076;22;20142;-80
2022/11/05 09:48:57;;;;;;;2.97;2.08;;;18.60;65.20;;;;;;6314935;22;20298;-79
2022/11/05 09:51:23;;;;;;;2.35;1.63;;;18.50;65.00;;;;;;6186532;22;20494;-79
2022/11/05 09:53:49;;;;;;;1.65;1.55;;;18.50;65.40;;;;;;6314632;22;20135;-80
2022/11/05 09:56:31;;;;;;;2.13;1.67;;;18.50;64.90;;;;;;6315193;22;20155;-79
2022/11/05 09:59:00;;;;;;;3.63;1.73;;;18.50;65.40;;;;;;6314450;22;20216;-79
2022/11/05 10:01:31;;;;;;;2.00;1.80;;;18.60;65.50;;;;;;6314438;22;20568;-80
2022/11/05 10:03:58;;;;;;;2.35;1.77;;;18.60;65.20;;;;;;6313708;22;20133;-80
2022/11/05 10:06:24;;;;;;;1.73;1.60;;;18.60;65.30;;;;;;6315734;22;20182;-79
2022/11/05 10:08:58;;;;;;;3.08;1.77;;;18.60;65.50;;;;;;6278906;22;20657;-80
2022/11/05 10:11:34;;;;;;;2.60;1.52;;;18.60;65.40;;;;;;6314485;22;20148;-79
2022/11/05 10:14:06;;;;;;;1.90;1.70;;;18.60;65.30;;;;;;6262559;22;20159;-80
2022/11/05 10:16:35;;;;;;;2.28;1.80;;;18.60;65.30;;;;;;6262453;22;20147;-80
2022/11/05 10:19:09;;;;;;;3.00;1.73;;;18.70;65.30;;;;;;6288626;22;20136;-79
2022/11/05 10:21:36;;;;;;;3.83;2.00;;;18.70;65.60;;;;;;6316703;22;20143;-79
2022/11/05 10:24:04;;;;;;;2.15;1.60;;;18.70;65.40;;;;;;6319059;22;20128;-79
2022/11/05 10:26:30;;;;;;;3.03;1.90;;;18.70;65.30;;;;;;6317974;22;20148;-80
2022/11/05 10:28:55;;;;;;;3.00;1.80;;;18.70;65.20;;;;;;6317157;22;20181;-79
2022/11/05 10:31:21;;;;;;;1.70;1.60;;;18.80;65.20;;;;;;6291603;22;20158;-80
2022/11/05 10:33:53;;;;;;;1.70;1.60;;;18.80;65.00;;;;;;6317573;22;20132;-80
2022/11/05 10:36:22;;;;;;;3.90;1.75;;;18.80;65.00;;;;;;6316651;22;20128;-79
2022/11/05 10:38:49;;;;;;;2.70;1.98;;;18.80;64.50;;;;;;6316257;22;20144;-79
2022/11/05 10:41:40;;;;;;;3.85;1.90;;;18.80;64.90;;;;;;6316392;22;20140;-80
2022/11/05 10:44:27;;;;;;;3.75;1.75;;;18.80;65.00;;;;;;6263646;22;20159;-79
2022/11/05 10:47:08;;;;;;;2.20;1.92;;;18.80;65.80;;;;;;6241087;22;20443;-79
2022/11/05 10:49:46;;;;;;;4.03;2.15;;;18.80;64.90;;;;;;6290756;22;20254;-79
2022/11/05 10:52:24;;;;;;;2.58;2.10;;;18.80;64.90;;;;;;6316155;22;20147;-79
2022/11/05 10:54:51;;;;;;;2.28;1.80;;;18.80;65.00;;;;;;6288539;22;20143;-78
2022/11/05 10:57:41;;;;;;;2.38;1.80;;;18.80;64.80;;;;;;6316203;22;20131;-78
2022/11/05 11:00:20;;;;;;;2.50;1.90;;;18.70;64.90;;;;;;6316827;22;20132;-79
2022/11/05 11:02:52;;;;;;;3.63;1.90;;;18.80;65.20;;;;;;6317848;22;20193;-78
2022/11/05 11:05:23;;;;;;;4.13;2.00;;;18.80;65.20;;;;;;6318651;22;20136;-79
2022/11/05 11:07:56;;;;;;;4.78;1.77;;;18.80;65.30;;;;;;6314506;22;20188;-79
2022/11/05 11:10:26;;;;;;;2.88;1.75;;;18.80;65.00;;;;;;6314245;22;20554;-79
2022/11/05 11:12:52;;;;;;;2.92;1.77;;;18.80;65.30;;;;;;6262696;22;20231;-79
2022/11/05 11:15:26;;;;;;;4.07;1.67;;;18.80;65.50;;;;;;6314802;22;20128;-79
2022/11/05 11:17:53;;;;;;;4.18;2.25;;;18.80;65.50;;;;;;6315184;22;20134;-79
2022/11/05 11:20:31;;;;;;;3.42;1.90;;;18.80;65.50;;;;;;6316861;22;20136;-79
2022/11/05 11:23:03;;;;;;;2.85;2.10;;;18.80;65.70;;;;;;6315879;22;20221;-79
2022/11/05 11:25:43;;;;;;;4.00;1.77;;;18.80;65.70;;;;;;6289775;22;20132;-79
2022/11/05 11:28:15;;;;;;;3.38;1.88;;;18.80;65.50;;;;;;6315152;22;20196;-79
2022/11/05 11:30:46;;;;;;;2.67;1.95;;;18.80;65.60;;;;;;6317259;22;20141;-79
2022/11/05 11:33:21;;;;;;;3.17;1.77;;;18.80;65.80;;;;;;6318103;22;20140;-79
2022/11/05 11:35:47;;;;;;;4.78;1.70;;;18.80;65.60;;;;;;6318586;22;20139;-79
2022/11/05 11:38:14;;;;;;;2.92;1.90;;;18.80;65.60;;;;;;6317580;22;20480;-79
2022/11/05 11:40:40;;;;;;;6.88;2.13;;;18.80;65.60;;;;;;6316133;22;20132;-79
2022/11/05 11:43:41;;;;;;;5.53;1.67;;;18.90;65.80;;;;;;6316621;22;20151;-78
2022/11/05 11:46:24;;;;;;;3.35;1.70;;;18.90;65.80;;;;;;6271713;22;20182;-80
2022/11/05 11:48:52;;;;;;;4.32;2.00;;;18.80;65.60;;;;;;6265821;22;20183;-80
2022/11/05 11:51:43;;;;;;;2.92;1.88;;;18.90;65.90;;;;;;6262350;22;20278;-78
2022/11/05 11:54:30;;;;;;;3.55;1.98;;;18.90;65.80;;;;;;6245745;22;20148;-79
2022/11/05 11:57:01;;;;;;;2.10;1.70;;;18.80;65.90;;;;;;6266152;22;20575;-80
2022/11/05 11:59:29;;;;;;;3.90;1.95;;;18.80;66.10;;;;;;6265237;22;20182;-80
2022/11/05 12:02:25;;;;;;;2.60;1.70;;;18.90;66.10;;;;;;6240600;22;20151;-80
2022/11/05 12:05:06;;;;;;;3.28;1.98;;;18.80;65.60;;;;;;6291432;22;20250;-79
2022/11/05 12:07:51;;;;;;;2.55;1.88;;;18.80;66.00;;;;;;6265147;22;20526;-80
2022/11/05 12:10:42;;;;;;;2.60;1.70;;;18.90;65.20;;;;;;6317047;22;20138;-80
2022/11/05 12:13:35;;;;;;;3.40;1.58;;;18.90;65.20;;;;;;6288579;22;20476;-79
2022/11/05 12:16:23;;;;;;;2.13;1.80;;;18.90;65.60;;;;;;6167026;22;20151;-78
2022/11/05 12:19:17;;;;;;;3.65;1.70;;;18.90;65.60;;;;;;6263586;22;20148;-80
2022/11/05 12:21:58;;;;;;;3.17;1.90;;;18.90;65.20;;;;;;6285888;22;20152;-78
2022/11/05 12:24:55;;;;;;;2.05;1.80;;;18.90;65.40;;;;;;6266380;22;20167;-79
2022/11/05 12:27:40;;;;;;;4.38;1.90;;;18.90;65.50;;;;;;6315018;22;20619;-79
2022/11/05 12:30:15;;;;;;;4.68;1.90;;;18.90;65.60;;;;;;6218902;22;20591;-79
2022/11/05 12:32:55;;;;;;;2.15;1.83;;;18.90;65.60;;;;;;6237335;22;20152;-78
2022/11/05 12:35:40;;;;;;;4.40;2.28;;;18.90;65.20;;;;;;6265245;22;20147;-79
2022/11/05 12:38:24;;;;;;;1.88;1.67;;;18.80;65.30;;;;;;6287187;22;20148;-79
2022/11/05 12:41:23;;;;;;;2.47;1.40;;;18.90;65.60;;;;;;6260413;22;20148;-78
2022/11/05 12:44:29;;;;;;;2.47;2.13;;;18.80;65.40;;;;;;6283382;22;20490;-78
2022/11/05 12:47:16;;;;;;;2.95;1.90;;;18.80;65.80;;;;;;6284640;22;20186;-78
2022/11/05 12:50:06;;;;;;;3.17;1.70;;;18.80;65.60;;;;;;6243328;22;20183;-78
2022/11/05 12:53:07;;;;;;;2.35;1.80;;;18.80;65.40;;;;;;6248021;22;20159;-78
2022/11/05 12:55:41;;;;;;;3.58;1.77;;;18.80;65.30;;;;;;6236618;22;20148;-78
2022/11/05 12:58:14;;;;;;;2.95;1.67;;;18.80;65.40;;;;;;6264011;22;20191;-79
2022/11/05 13:00:43;;;;;;;4.65;1.85;;;18.80;65.10;;;;;;6264677;22;20171;-79
2022/11/05 13:03:37;;;;;;;4.05;2.03;;;18.90;65.50;;;;;;6239236;22;20167;-77
2022/11/05 13:06:16;;;;;;;3.92;1.90;;;18.80;65.30;;;;;;6264646;22;20211;-79
2022/11/05 13:08:57;;;;;;;5.03;1.65;;;18.90;65.20;;;;;;6197878;22;20205;-79
2022/11/05 13:11:37;;;;;;;7.40;2.20;;;18.80;65.30;;;;;;6271277;22;20156;-78
2022/11/05 13:14:20;;;;;;;3.90;1.80;;;18.90;65.20;;;;;;6247180;22;20154;-78
2022/11/05 13:16:54;;;;;;;2.30;1.90;;;18.90;65.10;;;;;;6268723;22;20167;-78
2022/11/05 13:19:25;;;;;;;3.97;1.80;;;18.90;65.90;;;;;;6262796;22;20152;-78
2022/11/05 13:21:59;;;;;;;3.15;1.77;;;18.80;65.40;;;;;;6261662;22;20159;-78
2022/11/05 13:24:32;;;;;;;6.35;2.10;;;18.80;65.20;;;;;;6262562;22;20208;-78
2022/11/05 13:27:38;;;;;;;5.40;1.98;;;18.90;65.60;;;;;;6236226;22;20589;-78
2022/11/05 13:30:06;;;;;;;5.28;2.05;;;18.80;66.00;;;;;;6293288;22;20278;-79
2022/11/05 13:32:37;;;;;;;4.70;1.85;;;18.80;66.00;;;;;;6287911;22;20219;-78
2022/11/05 13:35:13;;;;;;;3.95;2.25;;;18.80;65.70;;;;;;6316482;22;20136;-78
2022/11/05 13:40:35;;;;;;;4.00;1.77;;;18.80;65.80;;;;;;6315106;22;20143;-79
2022/11/05 13:43:27;;;;;;;2.72;1.75;;;18.90;65.60;;;;;;6314864;22;20461;-78
2022/11/05 13:46:08;;;;;;;2.25;1.73;;;18.90;65.60;;;;;;6292401;22;20136;-78
2022/11/05 13:49:02;;;;;;;3.30;1.70;;;18.90;65.10;;;;;;6236444;22;20717;-78
2022/11/05 13:51:41;;;;;;;3.25;1.88;;;18.90;65.10;;;;;;6313172;22;20482;-78
2022/11/05 13:54:49;;;;;;;2.97;1.75;;;18.90;65.80;;;;;;6315033;22;20569;-78
2022/11/05 13:57:37;;;;;;;4.50;1.80;;;18.90;65.80;;;;;;6296158;22;20136;-79
2022/11/05 14:00:16;;;;;;;5.00;1.98;;;18.90;65.90;;;;;;6312817;22;20185;-79
2022/11/05 14:02:46;;;;;;;2.47;1.80;;;18.90;65.80;;;;;;6259653;22;20181;-78
2022/11/05 14:05:31;;;;;;;3.53;1.48;;;18.90;65.70;;;;;;6311804;22;20139;-78
2022/11/05 14:07:58;;;;;;;2.38;1.90;;;18.90;65.50;;;;;;6311420;22;20519;-79
2022/11/05 14:10:40;;;;;;;2.28;1.60;;;19.00;65.60;;;;;;6284504;22;20562;-78